Time;durP1;ratioP1;P1;durP2;ratioP2;P2;SDS_P1;SDS_P2;PMS_P1;PMS_P2;Temp;Humidity;BMP_temperature;BMP_pressure;BME280_temperature;BME280_humidity;BME280_pressure;Samples;Min_cycle;Max_cycle;Signal;HPM_P1;HPM_P2
2023/02/24 00:01:17;;;;;;;20.57;17.10;;;;;;;12.74;62.81;97463.00;8381310;28;20228;-67
2023/02/24 05:00:40;;;;;;;32.10;24.27;;;;;;;11.90;61.07;97233.56;8314086;28;20286;-66
2023/02/24 05:04:43;;;;;;;30.63;23.50;;;;;;;11.79;61.49;97222.13;8313774;28;20421;-66
2023/02/24 05:08:46;;;;;;;30.03;23.30;;;;;;;11.85;61.31;97221.75;8313951;28;20429;-66
2023/02/24 05:12:49;;;;;;;29.50;22.33;;;;;;;11.82;61.43;97220.19;8313851;28;20226;-66
2023/02/24 05:16:58;;;;;;;30.60;23.47;;;;;;;11.84;61.23;97220.94;8313910;28;20234;-66
2023/02/24 05:25:26;;;;;;;32.37;24.27;;;;;;;11.76;61.33;97209.34;8313703;28;20495;-67
2023/02/24 05:29:30;;;;;;;29.77;22.67;;;;;;;11.79;61.51;97203.97;8313877;28;20232;-66
2023/02/24 05:33:36;;;;;;;31.20;24.27;;;;;;;11.77;61.55;97204.06;8313850;28;20225;-66
2023/02/24 05:37:41;;;;;;;31.13;24.23;;;;;;;11.74;61.25;97199.88;8313601;28;20249;-66
2023/02/24 05:41:53;;;;;;;33.07;24.07;;;;;;;11.51;61.48;97166.75;8321142;28;20226;-66
2023/02/24 05:45:56;;;;;;;32.90;24.37;;;;;;;11.86;61.33;97190.53;8314099;28;20234;-66
2023/02/24 05:50:08;;;;;;;33.60;24.50;;;;;;;11.79;61.23;97180.63;8319896;28;20234;-66
2023/02/24 05:54:13;;;;;;;31.77;24.90;;;;;;;11.78;61.54;97182.38;8319593;28;20233;-66
2023/02/24 05:58:19;;;;;;;32.03;25.07;;;;;;;11.81;60.92;97177.00;8350618;28;20235;-66
2023/02/24 06:02:26;;;;;;;31.40;25.07;;;;;;;11.75;61.47;97161.84;8385210;28;20236;-66
2023/02/24 06:06:33;;;;;;;32.70;25.13;;;;;;;11.75;61.39;97164.44;8385001;28;20229;-66
2023/02/24 06:10:36;;;;;;;34.73;25.10;;;;;;;11.73;61.01;97167.09;8384733;28;20481;-66
2023/02/24 06:14:41;;;;;;;33.27;25.27;;;;;;;11.64;61.67;97159.06;8384432;28;20229;-66
2023/02/24 06:18:44;;;;;;;32.70;25.40;;;;;;;11.65;61.83;97163.31;8384115;28;20225;-66
2023/02/24 06:22:53;;;;;;;33.60;25.77;;;;;;;11.80;61.12;97161.53;8384618;28;20667;-66
2023/02/24 06:27:01;;;;;;;33.20;25.67;;;;;;;11.79;60.89;97163.31;8384255;28;20402;-66
2023/02/24 06:31:05;;;;;;;33.00;24.77;;;;;;;11.77;60.77;97161.75;8384274;28;20237;-66
2023/02/24 06:35:09;;;;;;;34.60;25.90;;;;;;;11.79;60.70;97158.13;8384200;28;20387;-66
2023/02/24 06:39:13;;;;;;;34.93;25.17;;;;;;;11.71;61.19;97160.34;8383673;28;20236;-66
2023/02/24 06:43:16;;;;;;;35.17;25.87;;;;;;;11.71;61.34;97160.34;8383749;28;20225;-66
2023/02/24 06:47:21;;;;;;;34.90;26.20;;;;;;;11.80;60.82;97159.75;8383702;28;20233;-66
2023/02/24 06:51:28;;;;;;;36.73;27.20;;;;;;;11.70;61.04;97156.09;8383827;28;20229;-66
2023/02/24 06:55:34;;;;;;;34.00;25.47;;;;;;;11.76;60.87;97147.91;8383474;28;20252;-66
2023/02/24 06:59:37;;;;;;;34.27;25.60;;;;;;;11.90;60.60;97154.91;8382508;28;20537;-66
2023/02/24 07:03:46;;;;;;;36.07;26.13;;;;;;;11.94;60.48;97164.16;8383248;28;20231;-66
2023/02/24 07:07:50;;;;;;;35.90;25.90;;;;;;;11.88;61.10;97154.09;8382540;28;20244;-66
2023/02/24 07:12:00;;;;;;;34.63;25.33;;;;;;;11.86;61.20;97149.03;8383253;28;20256;-67
2023/02/24 07:16:06;;;;;;;32.47;24.83;;;;;;;12.00;60.69;97150.78;8383337;28;20228;-66
2023/02/24 07:20:23;;;;;;;32.40;24.00;;;;;;;12.00;60.75;97160.34;8382723;28;20233;-66
2023/02/24 07:24:31;;;;;;;34.47;25.43;;;;;;;11.91;61.03;97159.13;8382629;28;20245;-66
2023/02/24 07:28:38;;;;;;;36.73;26.37;;;;;;;12.00;60.86;97152.56;8382434;28;20236;-66
2023/02/24 07:32:41;;;;;;;35.87;26.47;;;;;;;11.79;60.69;97137.38;8381767;28;20248;-66
2023/02/24 07:36:48;;;;;;;35.90;26.20;;;;;;;12.03;60.77;97141.97;8382018;28;20227;-67
2023/02/24 07:40:51;;;;;;;37.70;26.57;;;;;;;12.01;60.02;97136.03;8381677;28;20236;-66
2023/02/24 07:44:55;;;;;;;34.17;25.03;;;;;;;11.97;60.79;97129.38;8382024;28;20232;-66
2023/02/24 07:48:59;;;;;;;36.50;27.03;;;;;;;12.08;60.35;97126.94;8381673;28;20232;-66
2023/02/24 07:53:04;;;;;;;34.00;25.63;;;;;;;12.06;60.67;97119.25;8381619;28;20248;-66
2023/02/24 07:57:12;;;;;;;39.83;27.73;;;;;;;12.13;60.31;97128.31;8381379;28;20532;-65
2023/02/24 08:01:21;;;;;;;37.53;26.70;;;;;;;12.00;60.29;97119.66;8381472;28;20245;-67
2023/02/24 08:05:25;;;;;;;37.77;26.87;;;;;;;12.16;59.89;97126.44;8381141;28;20232;-65
2023/02/24 08:13:58;;;;;;;34.53;25.33;;;;;;;12.18;60.23;97128.00;8356016;28;20233;-65
2023/02/24 08:18:02;;;;;;;31.53;24.90;;;;;;;12.13;60.06;97119.69;8380868;28;20235;-66
2023/02/24 08:22:18;;;;;;;33.77;25.50;;;;;;;12.17;59.70;97089.19;8380838;28;20232;-65
2023/02/24 08:26:29;;;;;;;31.40;23.10;;;;;;;12.27;59.93;97113.63;8380621;28;20525;-66
2023/02/24 08:30:38;;;;;;;32.13;23.87;;;;;;;12.14;59.36;97105.78;8380869;28;20229;-65
2023/02/24 08:34:43;;;;;;;33.30;23.07;;;;;;;12.15;59.41;97096.22;8380517;28;20233;-66
2023/02/24 08:38:50;;;;;;;31.43;24.00;;;;;;;12.19;59.00;97102.91;8379815;28;20233;-66
2023/02/24 08:42:53;;;;;;;33.83;24.23;;;;;;;12.29;59.50;97104.78;8380501;28;20229;-66
2023/02/24 08:46:59;;;;;;;31.40;24.57;;;;;;;12.12;59.69;97085.09;8380288;28;20521;-66
2023/02/24 08:51:13;;;;;;;36.90;24.10;;;;;;;12.18;59.70;97089.06;8380710;28;20240;-66
2023/02/24 08:55:21;;;;;;;31.93;23.53;;;;;;;12.28;59.06;97084.09;8379897;28;20585;-66
2023/02/24 08:59:36;;;;;;;30.73;24.17;;;;;;;12.43;58.84;97079.69;8379836;28;20229;-66
2023/02/24 09:03:44;;;;;;;32.30;24.07;;;;;;;12.26;59.16;97079.03;8380075;28;20513;-66
2023/02/24 09:07:53;;;;;;;32.30;23.43;;;;;;;12.34;58.51;97075.94;8379304;28;20525;-66
2023/02/24 09:11:58;;;;;;;29.97;21.93;;;;;;;12.39;58.62;97073.03;8379445;28;20300;-67
2023/02/24 09:16:01;;;;;;;32.93;22.67;;;;;;;12.38;58.50;97061.00;8379568;28;20244;-66
2023/02/24 09:20:55;;;;;;;30.67;22.50;;;;;;;12.30;58.09;97067.53;8380542;28;20615;-66
2023/02/24 09:25:16;;;;;;;29.90;21.40;;;;;;;12.45;57.85;97060.50;8385623;28;20240;-67
2023/02/24 09:33:37;;;;;;;30.50;22.67;;;;;;;12.61;58.02;97047.31;8386014;28;20233;-66
2023/02/24 09:37:40;;;;;;;32.87;24.20;;;;;;;12.43;58.37;97053.72;8385617;28;20240;-66
2023/02/24 09:41:56;;;;;;;29.30;23.03;;;;;;;12.71;57.69;97045.72;8384957;28;20248;-67
2023/02/24 09:46:13;;;;;;;28.63;22.87;;;;;;;12.72;57.80;97044.00;8385747;28;20243;-67
2023/02/24 09:50:29;;;;;;;30.07;22.23;;;;;;;12.89;58.08;97038.47;8385536;28;20489;-66
2023/02/24 09:59:24;;;;;;;21.47;11.50;;;;;;;14.51;73.65;97018.28;8385196;28;20234;-65
2023/02/24 10:03:42;;;;;;;27.73;18.63;;;;;;;14.84;61.49;97020.16;8385234;28;20227;-66
2023/02/24 10:07:46;;;;;;;27.40;19.57;;;;;;;15.28;57.33;97010.66;8384540;28;20242;-66
2023/02/24 10:11:54;;;;;;;25.30;19.33;;;;;;;15.18;55.81;96986.25;8385187;28;20528;-66
2023/02/24 10:16:04;;;;;;;28.20;21.83;;;;;;;14.12;53.36;96995.09;8385092;28;20299;-65
2023/02/24 10:20:27;;;;;;;25.23;21.43;;;;;;;13.76;54.52;96967.41;8384856;28;20303;-66
2023/02/24 10:24:34;;;;;;;25.87;20.80;;;;;;;13.73;54.09;96984.09;8384627;28;20243;-66
2023/02/24 10:28:44;;;;;;;26.80;20.77;;;;;;;13.71;54.00;96964.31;8384520;28;20235;-66
2023/02/24 10:32:53;;;;;;;22.27;18.27;;;;;;;13.55;54.26;96962.81;8382746;28;20520;-66
2023/02/24 10:37:05;;;;;;;21.43;17.80;;;;;;;13.92;53.93;96969.72;8383917;28;20291;-66
2023/02/24 10:41:10;;;;;;;20.87;16.27;;;;;;;13.98;53.53;96966.69;8384004;28;20229;-65
2023/02/24 10:45:16;;;;;;;19.07;14.63;;;;;;;14.59;51.33;96951.66;8383946;28;20300;-66
2023/02/24 10:49:23;;;;;;;19.27;15.43;;;;;;;14.58;51.43;96954.38;8383430;28;20232;-66
2023/02/24 10:53:33;;;;;;;18.50;14.97;;;;;;;14.28;52.11;96919.28;8383502;28;20423;-66
2023/02/24 10:57:46;;;;;;;21.73;16.37;;;;;;;14.20;50.90;96926.84;8383885;28;20266;-66
2023/02/24 11:02:05;;;;;;;17.67;15.13;;;;;;;15.50;50.64;96922.84;8382956;28;20248;-66
2023/02/24 11:06:40;;;;;;;17.00;13.70;;;;;;;16.00;47.66;96897.84;8383399;28;20247;-67
2023/02/24 11:10:57;;;;;;;16.87;12.80;;;;;;;15.86;46.54;96900.78;8383059;28;20221;-67
2023/02/24 11:19:28;;;;;;;15.20;11.70;;;;;;;15.20;44.81;96893.88;8383139;28;20230;-67
2023/02/24 11:23:34;;;;;;;15.80;12.87;;;;;;;14.76;47.04;96882.59;8382663;28;20226;-67
2023/02/24 11:27:40;;;;;;;16.00;12.53;;;;;;;13.89;46.90;96765.19;8382842;28;20232;-67
2023/02/24 11:31:55;;;;;;;14.37;11.47;;;;;;;14.47;46.77;96861.41;8382203;28;20559;-67
2023/02/24 11:36:04;;;;;;;16.20;11.93;;;;;;;14.71;46.56;96858.69;8382645;28;20225;-66
2023/02/24 11:40:15;;;;;;;12.30;11.00;;;;;;;14.35;46.86;96847.53;8382641;28;20513;-66
2023/02/24 11:44:22;;;;;;;16.67;12.23;;;;;;;13.89;47.25;96817.22;8381307;28;20507;-67
2023/02/24 11:48:28;;;;;;;16.47;11.93;;;;;;;14.17;47.27;96830.75;8382076;28;20221;-68
2023/02/24 11:52:33;;;;;;;15.73;11.60;;;;;;;14.17;47.81;96805.53;8381802;28;20225;-68
2023/02/24 11:56:42;;;;;;;15.97;12.40;;;;;;;14.37;47.83;96803.97;8381581;28;20247;-69
2023/02/24 12:00:52;;;;;;;16.17;12.97;;;;;;;13.95;47.99;96795.94;8381131;28;20229;-68
2023/02/24 12:04:59;;;;;;;14.73;11.43;;;;;;;14.08;46.43;96790.63;8381422;28;20236;-68
2023/02/24 12:09:09;;;;;;;15.20;10.83;;;;;;;14.19;46.54;96790.63;8381140;28;20232;-68
2023/02/24 12:13:18;;;;;;;17.33;10.70;;;;;;;13.83;45.57;96781.28;8381383;28;20415;-67
2023/02/24 12:17:28;;;;;;;12.20;9.90;;;;;;;13.54;47.22;96775.69;8381022;28;20296;-68
2023/02/24 12:21:34;;;;;;;13.00;10.17;;;;;;;13.74;45.95;96763.75;8380866;28;20240;-68
2023/02/24 12:25:57;;;;;;;14.00;10.37;;;;;;;13.60;46.34;96763.03;8381181;28;20230;-68
2023/02/24 12:30:32;;;;;;;13.60;9.50;;;;;;;13.67;46.51;96740.81;8380641;28;20228;-68
2023/02/24 12:34:42;;;;;;;24.50;11.07;;;;;;;13.04;47.80;96748.09;8380670;28;20332;-67
2023/02/24 12:38:52;;;;;;;16.60;10.73;;;;;;;12.90;47.94;96746.50;8380142;28;20305;-68
2023/02/24 12:43:03;;;;;;;14.30;10.50;;;;;;;13.01;47.49;96717.13;8380231;28;20233;-69
2023/02/24 12:47:11;;;;;;;15.07;11.03;;;;;;;13.30;47.68;96732.34;8380486;28;20227;-67
2023/02/24 12:51:20;;;;;;;17.27;11.40;;;;;;;12.87;48.20;96699.13;8380245;28;20543;-68
2023/02/24 12:55:27;;;;;;;16.80;10.70;;;;;;;13.20;47.54;96720.97;8379774;28;20230;-66
2023/02/24 12:59:36;;;;;;;15.60;10.07;;;;;;;13.11;46.65;96720.69;8379963;28;20242;-67
2023/02/24 13:04:04;;;;;;;13.23;9.67;;;;;;;13.02;46.74;96705.81;8379698;28;20232;-67
2023/02/24 13:08:18;;;;;;;14.13;9.43;;;;;;;13.87;45.28;96700.25;8379828;28;20245;-67
2023/02/24 13:12:27;;;;;;;14.80;10.13;;;;;;;13.51;44.88;96690.09;8379586;28;20236;-67
2023/02/24 13:16:31;;;;;;;13.10;9.73;;;;;;;13.60;44.81;96684.19;8379822;28;20581;-66
2023/02/24 13:20:36;;;;;;;14.40;9.60;;;;;;;13.41;45.34;96675.19;8379712;28;20247;-66
2023/02/24 13:24:42;;;;;;;13.03;9.57;;;;;;;13.50;45.41;96671.06;8379510;28;20235;-66
2023/02/24 13:28:44;;;;;;;14.13;10.00;;;;;;;13.45;46.11;96647.16;8379212;28;20235;-66
2023/02/24 13:32:59;;;;;;;14.50;10.63;;;;;;;13.25;46.15;96654.69;8379396;28;20499;-66
2023/02/24 13:37:09;;;;;;;11.60;9.13;;;;;;;13.67;45.50;96641.97;8379348;28;20231;-66
2023/02/24 13:41:36;;;;;;;14.90;10.67;;;;;;;13.49;45.85;96639.00;8379130;28;20301;-66
2023/02/24 13:45:40;;;;;;;14.83;10.63;;;;;;;13.70;45.79;96633.09;8379484;28;20236;-66
2023/02/24 13:49:50;;;;;;;15.97;11.13;;;;;;;13.33;46.00;96630.75;8386964;28;20219;-67
2023/02/24 13:54:07;;;;;;;13.47;9.77;;;;;;;13.84;45.48;96616.38;8378893;28;20242;-67
2023/02/24 13:58:27;;;;;;;17.93;11.07;;;;;;;13.83;44.95;96612.13;8379319;28;20388;-67
2023/02/24 14:02:30;;;;;;;13.67;10.17;;;;;;;13.94;45.43;96606.91;8378215;28;20244;-68
2023/02/24 14:06:34;;;;;;;17.17;10.83;;;;;;;13.92;45.81;96600.16;8379035;28;20496;-68
2023/02/24 14:10:44;;;;;;;14.53;11.03;;;;;;;13.68;45.61;96599.38;8385233;28;20232;-68
2023/02/24 14:14:47;;;;;;;14.53;10.47;;;;;;;13.49;45.81;96588.78;8384662;28;20239;-68
2023/02/24 14:18:54;;;;;;;14.10;10.67;;;;;;;13.18;47.20;96577.28;8385181;28;20224;-68
2023/02/24 14:22:59;;;;;;;13.20;10.10;;;;;;;13.00;46.39;96506.75;8384691;28;20243;-68
2023/02/24 14:27:04;;;;;;;14.83;10.50;;;;;;;13.53;46.50;96578.94;8384951;28;20247;-68
2023/02/24 14:31:09;;;;;;;15.43;11.43;;;;;;;13.48;46.87;96556.75;8384753;28;20228;-68
2023/02/24 14:35:19;;;;;;;17.30;12.77;;;;;;;13.44;46.99;96562.28;8384646;28;20527;-68
2023/02/24 14:39:23;;;;;;;16.17;11.73;;;;;;;13.12;47.38;96537.00;8383791;28;20236;-68
2023/02/24 14:43:28;;;;;;;18.20;10.80;;;;;;;13.25;48.15;96552.47;8383676;28;20238;-69
2023/02/24 14:47:32;;;;;;;13.40;10.40;;;;;;;12.81;47.67;96539.38;8383956;28;20233;-69
2023/02/24 14:51:36;;;;;;;14.37;10.53;;;;;;;12.13;47.89;96429.38;8382624;28;20235;-68
2023/02/24 14:55:42;;;;;;;15.20;9.93;;;;;;;13.06;47.40;96537.47;8383273;28;20401;-67
2023/02/24 14:59:49;;;;;;;13.77;10.60;;;;;;;13.06;47.78;96540.06;8415396;28;20247;-68
2023/02/24 15:03:54;;;;;;;13.13;10.13;;;;;;;12.71;48.01;96521.03;8415913;28;20232;-68
2023/02/24 15:07:58;;;;;;;14.03;10.47;;;;;;;12.90;47.81;96523.03;8415761;28;20241;-67
2023/02/24 15:12:11;;;;;;;14.97;9.80;;;;;;;13.08;47.13;96526.03;8415739;28;27568;-68
2023/02/24 15:16:20;;;;;;;14.73;10.83;;;;;;;13.11;46.73;96517.97;8415660;28;20232;-67
2023/02/24 15:20:32;;;;;;;14.47;10.07;;;;;;;12.91;47.63;96509.13;8415151;28;20610;-67
2023/02/24 15:24:35;;;;;;;16.43;10.73;;;;;;;13.04;47.39;96506.41;8414751;28;20235;-67
2023/02/24 15:28:38;;;;;;;16.07;11.70;;;;;;;12.54;48.69;96499.88;8414819;28;20234;-68
2023/02/24 15:32:42;;;;;;;15.67;11.50;;;;;;;13.02;48.06;96505.72;8414550;28;20531;-68
2023/02/24 15:36:46;;;;;;;13.50;10.33;;;;;;;12.78;47.98;96499.81;8381121;28;20526;-68
2023/02/24 15:40:51;;;;;;;16.47;10.73;;;;;;;12.04;48.22;96393.75;8381353;28;20237;-68
2023/02/24 15:44:55;;;;;;;15.50;11.40;;;;;;;12.96;47.07;96489.75;8381750;28;20548;-68
2023/02/24 15:49:04;;;;;;;14.20;11.20;;;;;;;12.55;47.36;96470.41;8380771;28;20241;-68
2023/02/24 15:53:11;;;;;;;24.17;17.63;;;;;;;12.45;47.52;96484.06;8380519;28;20253;-68
2023/02/24 15:57:16;;;;;;;16.93;13.90;;;;;;;12.49;47.27;96479.47;8380465;28;20269;-68
2023/02/24 16:01:19;;;;;;;21.33;15.00;;;;;;;12.77;46.66;96482.56;8380864;28;20534;-68
2023/02/24 16:05:23;;;;;;;18.80;14.70;;;;;;;12.72;46.38;96480.31;8380496;28;20225;-68
2023/02/24 16:09:32;;;;;;;16.80;11.63;;;;;;;12.54;46.01;96460.94;8380063;28;20230;-68
2023/02/24 16:13:35;;;;;;;16.47;12.03;;;;;;;12.27;45.71;96467.28;8380187;28;20296;-68
2023/02/24 16:17:39;;;;;;;15.77;11.00;;;;;;;12.25;46.07;96427.63;8380242;28;20405;-68
2023/02/24 16:21:45;;;;;;;16.73;11.70;;;;;;;12.55;45.17;96458.22;8379906;28;20225;-68
2023/02/24 16:25:50;;;;;;;14.27;11.80;;;;;;;12.42;46.28;96458.31;8379657;28;20224;-68
2023/02/24 16:29:53;;;;;;;16.70;12.13;;;;;;;12.08;46.15;96457.44;8379182;28;20238;-67
2023/02/24 16:33:57;;;;;;;17.83;11.63;;;;;;;12.41;45.96;96454.06;8379809;28;20245;-67
2023/02/24 16:38:01;;;;;;;16.67;12.23;;;;;;;12.43;45.81;96453.94;8379498;28;20250;-69
2023/02/24 16:42:05;;;;;;;15.10;11.23;;;;;;;11.78;46.22;96452.72;8379491;28;20412;-67
2023/02/24 16:46:14;;;;;;;15.43;11.50;;;;;;;11.67;46.47;96456.94;8379992;28;20220;-67
2023/02/24 16:50:20;;;;;;;15.27;11.70;;;;;;;11.67;46.18;96449.16;8379840;28;20262;-67
2023/02/24 16:54:28;;;;;;;13.97;11.10;;;;;;;11.98;45.57;96441.72;8379643;28;20256;-67
2023/02/24 16:58:31;;;;;;;13.93;11.30;;;;;;;11.78;46.35;96448.34;8379658;28;20229;-67
2023/02/24 17:02:34;;;;;;;14.03;10.73;;;;;;;12.21;46.04;96450.38;8378603;28;20229;-67
2023/02/24 17:06:37;;;;;;;17.03;11.53;;;;;;;12.05;46.55;96455.91;8378239;28;20432;-66
2023/02/24 17:10:42;;;;;;;15.03;11.03;;;;;;;11.54;45.94;96423.28;8379581;28;20224;-69
2023/02/24 17:14:45;;;;;;;14.00;11.00;;;;;;;11.77;45.90;96451.06;8378837;28;20263;-67
2023/02/24 17:18:48;;;;;;;14.03;11.00;;;;;;;11.91;45.41;96427.56;8379222;28;20249;-67
2023/02/24 17:22:50;;;;;;;13.53;10.47;;;;;;;12.12;45.27;96449.28;8378748;28;20228;-68
2023/02/24 17:26:57;;;;;;;12.63;10.07;;;;;;;12.16;45.32;96444.72;8378934;28;20228;-69
2023/02/24 17:31:00;;;;;;;15.53;11.17;;;;;;;11.99;45.31;96430.41;8379023;28;20236;-68
2023/02/24 17:35:03;;;;;;;15.47;11.90;;;;;;;11.98;44.62;96448.69;8378948;28;20329;-69
2023/02/24 17:39:06;;;;;;;12.67;10.70;;;;;;;11.76;45.24;96426.88;8378695;28;20224;-69
2023/02/24 17:43:10;;;;;;;15.73;10.47;;;;;;;11.93;44.50;96447.25;8383100;28;20236;-68
2023/02/24 17:47:13;;;;;;;16.07;11.50;;;;;;;12.02;44.23;96443.16;8385166;28;20222;-67
2023/02/24 17:51:18;;;;;;;14.80;11.13;;;;;;;11.81;44.64;96421.38;8385118;28;20444;-67
2023/02/24 17:55:21;;;;;;;14.53;11.17;;;;;;;11.84;43.63;96434.94;8385086;28;20287;-66
2023/02/24 17:59:25;;;;;;;16.10;11.17;;;;;;;12.07;44.21;96438.47;8384925;28;20240;-66
2023/02/24 18:03:28;;;;;;;15.23;11.10;;;;;;;11.87;44.18;96441.66;8384702;28;20233;-66
2023/02/24 18:07:31;;;;;;;14.47;11.83;;;;;;;11.86;44.18;96442.59;8384338;28;20239;-66
2023/02/24 18:11:36;;;;;;;15.27;11.80;;;;;;;11.94;44.19;96442.91;8384230;28;20225;-66
2023/02/24 18:15:40;;;;;;;13.97;11.33;;;;;;;11.93;44.16;96447.25;8384250;28;20225;-66
2023/02/24 18:19:42;;;;;;;14.97;11.23;;;;;;;11.82;44.95;96441.16;8383480;28;20225;-67
2023/02/24 18:23:47;;;;;;;14.80;10.60;;;;;;;11.87;43.83;96442.47;8383443;28;20233;-67
2023/02/24 18:27:50;;;;;;;13.93;10.40;;;;;;;11.90;44.42;96437.13;8383591;28;20235;-67
2023/02/24 18:31:54;;;;;;;11.47;9.50;;;;;;;11.88;44.69;96451.09;8383641;28;20229;-67
2023/02/24 18:35:58;;;;;;;13.73;10.53;;;;;;;11.78;44.15;96450.13;8383114;28;20236;-67
2023/02/24 18:40:01;;;;;;;14.13;10.57;;;;;;;11.53;44.38;96441.53;8383778;28;20610;-67
2023/02/24 18:44:05;;;;;;;16.10;11.27;;;;;;;10.94;45.78;96450.84;8383389;28;20225;-68
2023/02/24 18:48:11;;;;;;;14.57;10.27;;;;;;;10.79;45.99;96443.31;8382953;28;20217;-66
2023/02/24 18:52:14;;;;;;;16.30;11.70;;;;;;;10.59;47.07;96470.59;8382774;28;20391;-68
2023/02/24 18:56:19;;;;;;;12.80;8.77;;;;;;;13.93;65.03;96474.31;8382804;28;20220;-68
2023/02/24 19:00:26;;;;;;;16.43;10.33;;;;;;;13.89;50.37;96474.53;8382924;28;20229;-67
2023/02/24 19:04:30;;;;;;;15.32;11.82;;;;;;;12.97;44.01;96470.63;8380529;28;20432;-68
2023/02/24 19:08:33;;;;;;;12.60;9.97;;;;;;;11.43;47.67;96456.09;8382444;28;20245;-67
2023/02/24 19:12:36;;;;;;;12.93;9.20;;;;;;;10.41;50.62;96483.84;8382462;28;20231;-68
2023/02/24 19:16:43;;;;;;;10.90;7.93;;;;;;;10.49;50.79;96485.91;8415491;28;20216;-67
2023/02/24 19:20:48;;;;;;;10.50;8.00;;;;;;;10.13;53.16;96492.59;8414670;28;20227;-68
2023/02/24 19:24:51;;;;;;;8.77;7.50;;;;;;;9.33;55.99;96503.72;8414938;28;20239;-68
2023/02/24 19:28:54;;;;;;;9.10;7.30;;;;;;;8.74;58.08;96497.91;8414766;28;20230;-68
2023/02/24 19:32:57;;;;;;;7.70;6.70;;;;;;;8.74;57.71;96495.31;8414707;28;20544;-67
2023/02/24 19:37:01;;;;;;;6.37;4.83;;;;;;;8.90;56.85;96501.19;8414293;28;20234;-66
2023/02/24 19:41:04;;;;;;;7.57;4.90;;;;;;;8.46;58.51;96491.78;8414286;28;20232;-66
2023/02/24 19:45:09;;;;;;;5.67;4.43;;;;;;;8.61;58.54;96508.13;8414451;28;20228;-67
2023/02/24 19:49:14;;;;;;;5.20;4.70;;;;;;;8.32;59.34;96518.38;8414024;28;20233;-66
2023/02/24 19:53:19;;;;;;;5.83;4.50;;;;;;;8.05;58.99;96514.81;8414132;28;20226;-67
2023/02/24 19:57:21;;;;;;;4.67;3.90;;;;;;;8.41;58.11;96512.72;8413756;28;20230;-66
2023/02/24 20:01:26;;;;;;;4.97;4.00;;;;;;;8.45;57.69;96528.81;8413861;28;20220;-66
2023/02/24 20:05:29;;;;;;;4.83;3.43;;;;;;;8.85;57.05;96523.03;8412506;28;20552;-66
2023/02/24 20:09:33;;;;;;;4.40;3.77;;;;;;;9.13;56.20;96532.53;8413395;28;20216;-66
2023/02/24 20:13:36;;;;;;;4.30;3.47;;;;;;;9.05;56.05;96527.00;8413551;28;20225;-67
2023/02/24 20:17:39;;;;;;;6.17;4.20;;;;;;;8.78;56.82;96523.41;8413341;28;20438;-67
2023/02/24 20:21:42;;;;;;;4.20;3.80;;;;;;;8.82;56.59;96512.94;8379670;28;20229;-67
2023/02/24 20:25:51;;;;;;;6.03;4.67;;;;;;;9.12;55.41;96516.22;8379799;28;20229;-67
2023/02/24 20:29:55;;;;;;;4.03;3.63;;;;;;;9.10;54.59;96499.13;8380094;28;20236;-67
2023/02/24 20:33:58;;;;;;;4.50;3.47;;;;;;;9.29;55.17;96493.66;8379711;28;20234;-67
2023/02/24 20:38:01;;;;;;;2.90;2.70;;;;;;;8.69;56.00;96503.31;8379528;28;20237;-67
2023/02/24 20:42:06;;;;;;;2.70;2.50;;;;;;;8.70;56.33;96504.16;8379692;28;20237;-67
2023/02/24 20:46:12;;;;;;;4.07;2.77;;;;;;;8.97;54.95;96499.91;8379678;28;20229;-67
2023/02/24 20:50:18;;;;;;;2.70;2.43;;;;;;;9.16;55.26;96493.63;8379285;28;20229;-67
2023/02/24 20:54:25;;;;;;;3.00;2.30;;;;;;;8.71;55.74;96500.66;8379083;28;20222;-67
2023/02/24 20:58:29;;;;;;;3.80;2.43;;;;;;;9.11;55.37;96491.28;8378771;28;20229;-68
2023/02/24 21:02:32;;;;;;;3.87;2.37;;;;;;;8.96;56.10;96502.56;8378651;28;20224;-67
2023/02/24 21:06:36;;;;;;;2.90;2.63;;;;;;;8.87;55.95;96472.16;8378617;28;20237;-68
2023/02/24 21:10:43;;;;;;;3.07;2.77;;;;;;;9.16;55.18;96494.44;8378433;28;20226;-68
2023/02/24 21:14:48;;;;;;;2.50;2.30;;;;;;;8.94;55.89;96496.66;8377776;28;20288;-68
2023/02/24 21:18:51;;;;;;;2.40;2.20;;;;;;;8.68;55.28;96441.47;8387767;28;20432;-68
2023/02/24 21:22:54;;;;;;;2.83;2.43;;;;;;;8.96;55.35;96487.09;8389338;28;20248;-69
2023/02/24 21:26:57;;;;;;;3.43;2.30;;;;;;;8.77;56.13;96477.03;8389428;28;20232;-68
2023/02/24 21:31:06;;;;;;;2.60;2.40;;;;;;;8.83;56.03;96489.56;8389311;28;20233;-68
2023/02/24 21:35:09;;;;;;;2.40;2.20;;;;;;;8.54;56.48;96483.59;8389568;28;20230;-68
2023/02/24 21:39:13;;;;;;;2.43;2.17;;;;;;;8.88;55.39;96472.06;8389498;28;20229;-67
2023/02/24 21:43:16;;;;;;;3.33;2.17;;;;;;;9.08;55.66;96486.34;8389129;28;20295;-67
2023/02/24 21:47:20;;;;;;;3.20;2.23;;;;;;;9.02;55.35;96491.03;8389405;28;20228;-68
2023/02/24 21:51:24;;;;;;;2.83;2.57;;;;;;;8.94;55.85;96489.75;8388880;28;20233;-67
2023/02/24 21:55:29;;;;;;;3.17;2.77;;;;;;;9.16;55.23;96471.19;8389123;28;20525;-68
2023/02/24 21:59:32;;;;;;;2.93;2.67;;;;;;;9.14;55.19;96483.38;8388651;28;20245;-68
2023/02/24 22:03:36;;;;;;;2.50;2.30;;;;;;;8.74;55.11;96444.53;8388180;28;20241;-65
2023/02/24 22:07:39;;;;;;;2.60;2.40;;;;;;;8.87;56.46;96490.22;8647081;22;20234;-76
2023/02/24 22:11:42;;;;;;;3.03;2.67;;;;;;;8.80;55.94;96485.44;8355974;28;20462;-76
2023/02/24 22:15:45;;;;;;;2.53;2.33;;;;;;;9.04;55.54;96484.03;8355841;28;20235;-75
2023/02/24 22:19:49;;;;;;;2.50;2.30;;;;;;;8.77;56.12;96488.19;8356347;28;20229;-75
2023/02/24 22:23:53;;;;;;;2.70;2.50;;;;;;;8.78;56.15;96482.13;8356008;28;20241;-75
2023/02/24 22:27:56;;;;;;;3.33;2.67;;;;;;;8.77;56.53;96474.47;8353542;28;20239;-75
2023/02/24 22:31:58;;;;;;;3.10;2.80;;;;;;;9.00;55.92;96467.88;8350868;28;20225;-75
2023/02/24 22:36:04;;;;;;;3.00;2.80;;;;;;;9.00;55.74;96454.97;8350738;28;20304;-75
2023/02/24 22:40:10;;;;;;;3.83;3.20;;;;;;;9.16;55.56;96467.78;8351087;28;20273;-75
2023/02/24 22:44:13;;;;;;;4.07;3.07;;;;;;;9.00;56.24;96468.75;8350358;28;20233;-74
2023/02/24 22:48:16;;;;;;;3.50;3.20;;;;;;;8.82;56.59;96453.56;8350476;28;20232;-75
2023/02/24 22:52:20;;;;;;;3.13;2.83;;;;;;;8.93;56.32;96445.94;8350060;28;20513;-75
2023/02/24 22:56:25;;;;;;;3.43;3.13;;;;;;;9.13;56.33;96465.38;8350263;28;20408;-74
2023/02/24 23:00:28;;;;;;;3.63;3.33;;;;;;;9.06;56.41;96456.34;8350379;28;20232;-75
2023/02/24 23:04:33;;;;;;;4.20;3.80;;;;;;;9.04;56.97;96473.69;8349807;28;20240;-74
2023/02/24 23:08:38;;;;;;;5.07;4.57;;;;;;;8.58;57.87;96448.94;8397466;28;20392;-75
2023/02/24 23:12:41;;;;;;;4.87;4.47;;;;;;;8.85;57.68;96471.41;8415894;28;20224;-75
2023/02/24 23:16:47;;;;;;;5.50;4.90;;;;;;;8.74;58.06;96452.25;8414682;28;20243;-75
2023/02/24 23:20:59;;;;;;;5.03;4.53;;;;;;;8.66;57.73;96458.81;8415238;28;20224;-75
2023/02/24 23:25:04;;;;;;;5.23;4.73;;;;;;;8.76;57.75;96471.06;8415723;28;20229;-74
2023/02/24 23:29:09;;;;;;;5.67;5.17;;;;;;;8.78;57.99;96476.13;8415161;28;20236;-74
2023/02/24 23:33:12;;;;;;;6.17;5.43;;;;;;;8.66;58.63;96477.69;8415406;28;20239;-75
2023/02/24 23:37:15;;;;;;;6.87;6.27;;;;;;;8.75;58.41;96477.13;8415163;28;20232;-75
2023/02/24 23:41:19;;;;;;;6.30;5.50;;;;;;;8.75;58.38;96463.41;8415059;28;20224;-75
2023/02/24 23:45:23;;;;;;;7.00;5.73;;;;;;;8.83;58.00;96492.16;8414835;28;20235;-75
2023/02/24 23:49:26;;;;;;;6.70;6.10;;;;;;;8.79;58.85;96496.66;8414546;28;20224;-75
2023/02/24 23:53:45;;;;;;;6.60;6.00;;;;;;;8.39;59.73;96488.69;8414187;28;20228;-75
2023/02/24 23:57:49;;;;;;;6.63;5.47;;;;;;;8.66;58.76;96510.41;8414258;28;20228;-75
